sensor_id;sensor_type;location;lat;lon;timestamp;P1;durP1;ratioP1;P2;durP2;ratioP2
7128;SDS011;3606;52.930;8.644;2022-11-15T00:00:05;24.93;;;13.63;;
7128;SDS011;3606;52.930;8.644;2022-11-15T00:02:31;18.00;;;12.93;;
7128;SDS011;3606;52.930;8.644;2022-11-15T00:04:57;20.63;;;13.67;;
7128;SDS011;3606;52.930;8.644;2022-11-15T00:07:22;20.90;;;13.50;;
7128;SDS011;3606;52.930;8.644;2022-11-15T00:09:48;16.33;;;12.60;;
7128;SDS011;3606;52.930;8.644;2022-11-15T00:12:13;20.03;;;13.30;;
7128;SDS011;3606;52.930;8.644;2022-11-15T00:14:39;21.70;;;13.23;;
7128;SDS011;3606;52.930;8.644;2022-11-15T00:17:04;18.87;;;13.20;;
7128;SDS011;3606;52.930;8.644;2022-11-15T00:19:30;20.27;;;13.23;;
7128;SDS011;3606;52.930;8.644;2022-11-15T00:21:56;19.07;;;13.50;;
7128;SDS011;3606;52.930;8.644;2022-11-15T00:24:21;17.30;;;12.27;;
7128;SDS011;3606;52.930;8.644;2022-11-15T00:26:47;17.50;;;12.80;;
7128;SDS011;3606;52.930;8.644;2022-11-15T00:29:12;20.57;;;13.60;;
7128;SDS011;3606;52.930;8.644;2022-11-15T00:31:38;18.80;;;13.50;;
7128;SDS011;3606;52.930;8.644;2022-11-15T00:34:03;20.93;;;13.50;;
7128;SDS011;3606;52.930;8.644;2022-11-15T00:36:32;23.20;;;14.93;;
7128;SDS011;3606;52.930;8.644;2022-11-15T00:38:58;20.30;;;13.97;;
7128;SDS011;3606;52.930;8.644;2022-11-15T00:41:23;20.60;;;14.03;;
7128;SDS011;3606;52.930;8.644;2022-11-15T00:43:49;20.43;;;13.20;;
7128;SDS011;3606;52.930;8.644;2022-11-15T00:46:14;21.00;;;12.93;;
7128;SDS011;3606;52.930;8.644;2022-11-15T00:48:40;20.20;;;13.27;;
7128;SDS011;3606;52.930;8.644;2022-11-15T00:51:05;19.10;;;13.57;;
7128;SDS011;3606;52.930;8.644;2022-11-15T00:53:31;21.77;;;12.87;;
7128;SDS011;3606;52.930;8.644;2022-11-15T00:55:57;23.10;;;13.50;;
7128;SDS011;3606;52.930;8.644;2022-11-15T00:58:22;19.33;;;13.20;;
7128;SDS011;3606;52.930;8.644;2022-11-15T01:00:48;24.23;;;13.97;;
7128;SDS011;3606;52.930;8.644;2022-11-15T01:03:13;21.87;;;13.90;;
7128;SDS011;3606;52.930;8.644;2022-11-15T01:05:39;20.27;;;13.80;;
7128;SDS011;3606;52.930;8.644;2022-11-15T01:08:04;22.27;;;14.03;;
7128;SDS011;3606;52.930;8.644;2022-11-15T01:10:30;17.87;;;12.90;;
7128;SDS011;3606;52.930;8.644;2022-11-15T01:12:56;20.43;;;13.37;;
7128;SDS011;3606;52.930;8.644;2022-11-15T01:15:21;20.37;;;12.97;;
7128;SDS011;3606;52.930;8.644;2022-11-15T01:17:47;22.77;;;13.70;;
7128;SDS011;3606;52.930;8.644;2022-11-15T01:20:13;17.80;;;12.63;;
7128;SDS011;3606;52.930;8.644;2022-11-15T01:22:39;19.20;;;12.50;;
7128;SDS011;3606;52.930;8.644;2022-11-15T01:25:04;18.83;;;12.17;;
7128;SDS011;3606;52.930;8.644;2022-11-15T01:27:30;18.60;;;12.63;;
7128;SDS011;3606;52.930;8.644;2022-11-15T01:29:55;21.30;;;13.50;;
7128;SDS011;3606;52.930;8.644;2022-11-15T01:32:21;21.10;;;14.30;;
7128;SDS011;3606;52.930;8.644;2022-11-15T01:34:46;22.33;;;15.03;;
7128;SDS011;3606;52.930;8.644;2022-11-15T01:37:12;22.93;;;14.83;;
7128;SDS011;3606;52.930;8.644;2022-11-15T01:39:38;20.80;;;14.33;;
7128;SDS011;3606;52.930;8.644;2022-11-15T01:42:03;25.80;;;15.00;;
7128;SDS011;3606;52.930;8.644;2022-11-15T01:44:40;24.13;;;15.67;;
7128;SDS011;3606;52.930;8.644;2022-11-15T01:47:09;21.50;;;14.90;;
7128;SDS011;3606;52.930;8.644;2022-11-15T01:52:25;24.47;;;14.47;;
7128;SDS011;3606;52.930;8.644;2022-11-15T01:54:56;23.73;;;14.90;;
7128;SDS011;3606;52.930;8.644;2022-11-15T01:57:32;26.07;;;13.87;;
7128;SDS011;3606;52.930;8.644;2022-11-15T01:59:59;23.43;;;14.97;;
7128;SDS011;3606;52.930;8.644;2022-11-15T02:02:26;21.60;;;14.30;;
7128;SDS011;3606;52.930;8.644;2022-11-15T02:04:52;23.23;;;13.37;;
7128;SDS011;3606;52.930;8.644;2022-11-15T02:07:18;23.93;;;14.40;;
7128;SDS011;3606;52.930;8.644;2022-11-15T02:09:46;18.57;;;13.70;;
7128;SDS011;3606;52.930;8.644;2022-11-15T02:12:13;17.70;;;12.40;;
7128;SDS011;3606;52.930;8.644;2022-11-15T02:14:45;18.20;;;12.40;;
7128;SDS011;3606;52.930;8.644;2022-11-15T02:34:01;17.03;;;12.63;;
7128;SDS011;3606;52.930;8.644;2022-11-15T02:39:32;19.90;;;12.57;;
7128;SDS011;3606;52.930;8.644;2022-11-15T02:45:39;18.67;;;12.27;;
7128;SDS011;3606;52.930;8.644;2022-11-15T02:48:08;19.80;;;13.43;;
7128;SDS011;3606;52.930;8.644;2022-11-15T02:50:36;21.90;;;12.90;;
7128;SDS011;3606;52.930;8.644;2022-11-15T02:53:02;21.80;;;13.07;;
7128;SDS011;3606;52.930;8.644;2022-11-15T02:55:29;17.57;;;12.27;;
7128;SDS011;3606;52.930;8.644;2022-11-15T02:57:59;17.33;;;12.30;;
7128;SDS011;3606;52.930;8.644;2022-11-15T03:00:32;18.50;;;12.23;;
7128;SDS011;3606;52.930;8.644;2022-11-15T03:03:05;17.63;;;12.33;;
7128;SDS011;3606;52.930;8.644;2022-11-15T03:05:42;16.30;;;11.40;;
7128;SDS011;3606;52.930;8.644;2022-11-15T03:08:25;17.80;;;11.53;;
7128;SDS011;3606;52.930;8.644;2022-11-15T03:11:11;18.27;;;11.63;;
7128;SDS011;3606;52.930;8.644;2022-11-15T03:16:38;16.33;;;11.67;;
7128;SDS011;3606;52.930;8.644;2022-11-15T03:22:06;16.50;;;11.20;;
7128;SDS011;3606;52.930;8.644;2022-11-15T03:24:35;16.00;;;10.90;;
7128;SDS011;3606;52.930;8.644;2022-11-15T03:27:03;16.27;;;10.90;;
7128;SDS011;3606;52.930;8.644;2022-11-15T03:29:39;16.17;;;11.07;;
7128;SDS011;3606;52.930;8.644;2022-11-15T03:32:14;22.27;;;11.37;;
7128;SDS011;3606;52.930;8.644;2022-11-15T03:34:44;16.57;;;11.10;;
7128;SDS011;3606;52.930;8.644;2022-11-15T03:37:18;23.13;;;11.30;;
7128;SDS011;3606;52.930;8.644;2022-11-15T03:39:49;16.77;;;10.87;;
7128;SDS011;3606;52.930;8.644;2022-11-15T03:45:16;13.83;;;10.37;;
7128;SDS011;3606;52.930;8.644;2022-11-15T03:47:51;17.77;;;9.90;;
7128;SDS011;3606;52.930;8.644;2022-11-15T03:50:22;16.50;;;10.93;;
7128;SDS011;3606;52.930;8.644;2022-11-15T03:52:49;16.00;;;10.00;;
7128;SDS011;3606;52.930;8.644;2022-11-15T03:55:16;18.07;;;11.27;;
7128;SDS011;3606;52.930;8.644;2022-11-15T03:57:43;13.70;;;10.33;;
7128;SDS011;3606;52.930;8.644;2022-11-15T04:00:10;16.67;;;10.10;;
7128;SDS011;3606;52.930;8.644;2022-11-15T04:02:36;14.37;;;9.57;;
7128;SDS011;3606;52.930;8.644;2022-11-15T04:05:02;15.63;;;10.20;;
7128;SDS011;3606;52.930;8.644;2022-11-15T04:07:28;13.80;;;10.07;;
7128;SDS011;3606;52.930;8.644;2022-11-15T04:09:53;15.80;;;10.27;;
7128;SDS011;3606;52.930;8.644;2022-11-15T04:12:28;19.37;;;10.07;;
7128;SDS011;3606;52.930;8.644;2022-11-15T04:15:05;14.90;;;10.23;;
7128;SDS011;3606;52.930;8.644;2022-11-15T04:20:05;17.37;;;10.40;;
7128;SDS011;3606;52.930;8.644;2022-11-15T04:22:52;12.63;;;9.30;;
7128;SDS011;3606;52.930;8.644;2022-11-15T04:25:38;17.77;;;10.90;;
7128;SDS011;3606;52.930;8.644;2022-11-15T04:28:03;12.20;;;8.97;;
7128;SDS011;3606;52.930;8.644;2022-11-15T04:30:29;11.87;;;8.80;;
7128;SDS011;3606;52.930;8.644;2022-11-15T04:32:54;11.23;;;8.33;;
7128;SDS011;3606;52.930;8.644;2022-11-15T04:35:20;16.50;;;10.03;;
7128;SDS011;3606;52.930;8.644;2022-11-15T04:37:45;13.03;;;8.93;;
7128;SDS011;3606;52.930;8.644;2022-11-15T04:40:11;12.27;;;8.80;;
7128;SDS011;3606;52.930;8.644;2022-11-15T04:42:36;13.00;;;8.57;;
7128;SDS011;3606;52.930;8.644;2022-11-15T04:45:02;10.67;;;8.60;;
7128;SDS011;3606;52.930;8.644;2022-11-15T04:47:28;11.67;;;8.70;;
7128;SDS011;3606;52.930;8.644;2022-11-15T04:49:54;10.30;;;8.47;;
7128;SDS011;3606;52.930;8.644;2022-11-15T04:52:20;10.90;;;8.03;;
7128;SDS011;3606;52.930;8.644;2022-11-15T04:54:45;13.20;;;8.40;;
7128;SDS011;3606;52.930;8.644;2022-11-15T04:57:11;12.30;;;8.00;;
7128;SDS011;3606;52.930;8.644;2022-11-15T04:59:36;11.67;;;8.00;;
7128;SDS011;3606;52.930;8.644;2022-11-15T05:02:02;14.53;;;7.80;;
7128;SDS011;3606;52.930;8.644;2022-11-15T05:04:27;11.80;;;7.87;;
7128;SDS011;3606;52.930;8.644;2022-11-15T05:06:53;16.50;;;8.57;;
7128;SDS011;3606;52.930;8.644;2022-11-15T05:09:19;11.37;;;7.47;;
7128;SDS011;3606;52.930;8.644;2022-11-15T05:11:45;13.47;;;7.60;;
7128;SDS011;3606;52.930;8.644;2022-11-15T05:14:12;10.47;;;7.97;;
7128;SDS011;3606;52.930;8.644;2022-11-15T05:16:37;11.10;;;7.60;;
7128;SDS011;3606;52.930;8.644;2022-11-15T05:19:03;12.27;;;7.40;;
7128;SDS011;3606;52.930;8.644;2022-11-15T05:21:30;12.47;;;7.60;;
7128;SDS011;3606;52.930;8.644;2022-11-15T05:23:56;9.93;;;7.87;;
7128;SDS011;3606;52.930;8.644;2022-11-15T05:26:21;7.80;;;6.93;;
7128;SDS011;3606;52.930;8.644;2022-11-15T05:28:51;12.33;;;7.67;;
7128;SDS011;3606;52.930;8.644;2022-11-15T05:31:21;9.83;;;7.80;;
7128;SDS011;3606;52.930;8.644;2022-11-15T05:33:47;10.13;;;7.97;;
7128;SDS011;3606;52.930;8.644;2022-11-15T05:36:28;10.17;;;8.23;;
7128;SDS011;3606;52.930;8.644;2022-11-15T05:38:54;9.43;;;7.47;;
7128;SDS011;3606;52.930;8.644;2022-11-15T05:41:21;12.97;;;7.07;;
7128;SDS011;3606;52.930;8.644;2022-11-15T05:43:51;11.37;;;7.77;;
7128;SDS011;3606;52.930;8.644;2022-11-15T05:46:18;12.00;;;7.20;;
7128;SDS011;3606;52.930;8.644;2022-11-15T05:48:45;11.63;;;7.77;;
7128;SDS011;3606;52.930;8.644;2022-11-15T05:51:14;11.80;;;7.43;;
7128;SDS011;3606;52.930;8.644;2022-11-15T05:53:42;11.63;;;8.00;;
7128;SDS011;3606;52.930;8.644;2022-11-15T05:56:09;7.50;;;6.60;;
7128;SDS011;3606;52.930;8.644;2022-11-15T05:58:35;11.37;;;7.50;;
7128;SDS011;3606;52.930;8.644;2022-11-15T06:01:02;13.10;;;7.27;;
7128;SDS011;3606;52.930;8.644;2022-11-15T06:03:28;8.97;;;7.00;;
7128;SDS011;3606;52.930;8.644;2022-11-15T06:05:54;9.10;;;6.60;;
7128;SDS011;3606;52.930;8.644;2022-11-15T06:08:19;11.10;;;7.83;;
7128;SDS011;3606;52.930;8.644;2022-11-15T06:10:45;10.33;;;7.30;;
7128;SDS011;3606;52.930;8.644;2022-11-15T06:13:10;9.87;;;7.73;;
7128;SDS011;3606;52.930;8.644;2022-11-15T06:15:36;12.20;;;8.20;;
7128;SDS011;3606;52.930;8.644;2022-11-15T06:18:02;12.23;;;7.77;;
7128;SDS011;3606;52.930;8.644;2022-11-15T06:20:28;13.07;;;7.70;;
7128;SDS011;3606;52.930;8.644;2022-11-15T06:22:58;11.20;;;7.80;;
7128;SDS011;3606;52.930;8.644;2022-11-15T06:25:25;12.47;;;7.70;;
7128;SDS011;3606;52.930;8.644;2022-11-15T06:27:52;11.70;;;8.27;;
7128;SDS011;3606;52.930;8.644;2022-11-15T06:30:18;9.70;;;7.33;;
7128;SDS011;3606;52.930;8.644;2022-11-15T06:32:45;10.90;;;7.90;;
7128;SDS011;3606;52.930;8.644;2022-11-15T06:35:10;10.57;;;7.77;;
7128;SDS011;3606;52.930;8.644;2022-11-15T06:37:36;10.93;;;7.63;;
7128;SDS011;3606;52.930;8.644;2022-11-15T06:40:02;12.27;;;7.73;;
7128;SDS011;3606;52.930;8.644;2022-11-15T06:42:27;11.87;;;7.87;;
7128;SDS011;3606;52.930;8.644;2022-11-15T06:44:53;13.63;;;8.17;;
7128;SDS011;3606;52.930;8.644;2022-11-15T06:47:18;14.67;;;8.27;;
7128;SDS011;3606;52.930;8.644;2022-11-15T06:49:44;11.67;;;8.33;;
7128;SDS011;3606;52.930;8.644;2022-11-15T06:52:09;14.93;;;8.67;;
7128;SDS011;3606;52.930;8.644;2022-11-15T06:54:35;12.53;;;7.93;;
7128;SDS011;3606;52.930;8.644;2022-11-15T06:57:01;13.87;;;8.70;;
7128;SDS011;3606;52.930;8.644;2022-11-15T06:59:26;11.90;;;8.00;;
7128;SDS011;3606;52.930;8.644;2022-11-15T07:01:52;14.47;;;9.07;;
7128;SDS011;3606;52.930;8.644;2022-11-15T07:04:17;14.70;;;8.93;;
7128;SDS011;3606;52.930;8.644;2022-11-15T07:06:45;13.57;;;8.40;;
7128;SDS011;3606;52.930;8.644;2022-11-15T07:09:12;12.53;;;8.43;;
7128;SDS011;3606;52.930;8.644;2022-11-15T07:11:38;13.37;;;8.83;;
7128;SDS011;3606;52.930;8.644;2022-11-15T07:14:03;14.57;;;9.50;;
7128;SDS011;3606;52.930;8.644;2022-11-15T07:16:29;13.97;;;8.80;;
7128;SDS011;3606;52.930;8.644;2022-11-15T07:18:54;17.83;;;9.63;;
7128;SDS011;3606;52.930;8.644;2022-11-15T07:21:20;11.37;;;8.73;;
7128;SDS011;3606;52.930;8.644;2022-11-15T07:23:45;12.13;;;8.30;;
7128;SDS011;3606;52.930;8.644;2022-11-15T07:26:11;12.50;;;9.13;;
7128;SDS011;3606;52.930;8.644;2022-11-15T07:28:36;13.53;;;8.83;;
7128;SDS011;3606;52.930;8.644;2022-11-15T07:31:03;16.37;;;9.00;;
7128;SDS011;3606;52.930;8.644;2022-11-15T07:33:29;11.13;;;8.40;;
7128;SDS011;3606;52.930;8.644;2022-11-15T07:35:58;13.83;;;8.63;;
7128;SDS011;3606;52.930;8.644;2022-11-15T07:38:26;12.40;;;8.87;;
7128;SDS011;3606;52.930;8.644;2022-11-15T07:40:56;10.63;;;8.57;;
7128;SDS011;3606;52.930;8.644;2022-11-15T07:43:26;11.83;;;8.43;;
7128;SDS011;3606;52.930;8.644;2022-11-15T07:45:57;17.27;;;8.70;;
7128;SDS011;3606;52.930;8.644;2022-11-15T07:48:23;12.10;;;7.87;;
7128;SDS011;3606;52.930;8.644;2022-11-15T07:50:48;11.63;;;8.00;;
7128;SDS011;3606;52.930;8.644;2022-11-15T07:53:14;10.50;;;8.20;;
7128;SDS011;3606;52.930;8.644;2022-11-15T07:55:40;14.33;;;7.57;;
7128;SDS011;3606;52.930;8.644;2022-11-15T07:58:07;10.77;;;7.93;;
7128;SDS011;3606;52.930;8.644;2022-11-15T08:00:34;9.47;;;7.20;;
7128;SDS011;3606;52.930;8.644;2022-11-15T08:03:13;12.73;;;7.73;;
7128;SDS011;3606;52.930;8.644;2022-11-15T08:05:40;14.63;;;7.80;;
7128;SDS011;3606;52.930;8.644;2022-11-15T08:08:07;9.60;;;6.77;;
7128;SDS011;3606;52.930;8.644;2022-11-15T08:10:36;11.43;;;7.87;;
7128;SDS011;3606;52.930;8.644;2022-11-15T08:13:03;11.03;;;7.83;;
7128;SDS011;3606;52.930;8.644;2022-11-15T08:15:31;13.67;;;7.83;;
7128;SDS011;3606;52.930;8.644;2022-11-15T08:17:58;11.97;;;8.27;;
7128;SDS011;3606;52.930;8.644;2022-11-15T08:20:26;10.73;;;8.30;;
7128;SDS011;3606;52.930;8.644;2022-11-15T08:22:56;9.60;;;8.17;;
7128;SDS011;3606;52.930;8.644;2022-11-15T08:25:22;11.53;;;8.10;;
7128;SDS011;3606;52.930;8.644;2022-11-15T08:27:52;13.80;;;7.93;;
7128;SDS011;3606;52.930;8.644;2022-11-15T08:30:18;11.30;;;8.17;;
7128;SDS011;3606;52.930;8.644;2022-11-15T08:32:44;15.97;;;7.63;;
7128;SDS011;3606;52.930;8.644;2022-11-15T08:35:10;12.97;;;8.67;;
7128;SDS011;3606;52.930;8.644;2022-11-15T08:37:36;10.90;;;7.73;;
7128;SDS011;3606;52.930;8.644;2022-11-15T08:40:02;13.00;;;7.67;;
7128;SDS011;3606;52.930;8.644;2022-11-15T08:42:28;9.90;;;7.30;;
7128;SDS011;3606;52.930;8.644;2022-11-15T08:44:54;8.57;;;6.60;;
7128;SDS011;3606;52.930;8.644;2022-11-15T08:47:20;10.90;;;7.63;;
7128;SDS011;3606;52.930;8.644;2022-11-15T08:49:46;11.17;;;6.97;;
7128;SDS011;3606;52.930;8.644;2022-11-15T08:52:11;8.90;;;6.80;;
7128;SDS011;3606;52.930;8.644;2022-11-15T08:54:37;10.40;;;6.47;;
7128;SDS011;3606;52.930;8.644;2022-11-15T08:57:02;9.87;;;6.63;;
7128;SDS011;3606;52.930;8.644;2022-11-15T08:59:28;7.03;;;6.17;;
7128;SDS011;3606;52.930;8.644;2022-11-15T09:01:53;9.63;;;7.03;;
7128;SDS011;3606;52.930;8.644;2022-11-15T09:04:19;8.50;;;5.77;;
7128;SDS011;3606;52.930;8.644;2022-11-15T09:06:44;9.57;;;6.63;;
7128;SDS011;3606;52.930;8.644;2022-11-15T09:09:10;10.20;;;6.43;;
7128;SDS011;3606;52.930;8.644;2022-11-15T09:11:36;8.60;;;6.57;;
7128;SDS011;3606;52.930;8.644;2022-11-15T09:14:01;7.97;;;6.33;;
7128;SDS011;3606;52.930;8.644;2022-11-15T09:16:27;9.33;;;6.10;;
7128;SDS011;3606;52.930;8.644;2022-11-15T09:18:53;8.37;;;6.30;;
7128;SDS011;3606;52.930;8.644;2022-11-15T09:21:19;9.07;;;6.47;;
7128;SDS011;3606;52.930;8.644;2022-11-15T09:23:45;7.60;;;6.17;;
7128;SDS011;3606;52.930;8.644;2022-11-15T09:26:11;7.47;;;5.80;;
7128;SDS011;3606;52.930;8.644;2022-11-15T09:28:37;7.67;;;5.50;;
7128;SDS011;3606;52.930;8.644;2022-11-15T09:31:06;11.93;;;6.27;;
7128;SDS011;3606;52.930;8.644;2022-11-15T09:33:32;7.57;;;5.50;;
7128;SDS011;3606;52.930;8.644;2022-11-15T09:36:01;7.10;;;5.50;;
7128;SDS011;3606;52.930;8.644;2022-11-15T09:38:29;11.67;;;5.93;;
7128;SDS011;3606;52.930;8.644;2022-11-15T09:46:40;9.10;;;5.53;;
7128;SDS011;3606;52.930;8.644;2022-11-15T09:49:18;9.67;;;5.50;;
7128;SDS011;3606;52.930;8.644;2022-11-15T09:51:45;7.10;;;5.77;;
7128;SDS011;3606;52.930;8.644;2022-11-15T09:54:28;6.57;;;5.03;;
7128;SDS011;3606;52.930;8.644;2022-11-15T09:57:30;5.53;;;4.90;;
7128;SDS011;3606;52.930;8.644;2022-11-15T10:00:02;5.40;;;4.53;;
7128;SDS011;3606;52.930;8.644;2022-11-15T10:02:42;5.20;;;4.50;;
7128;SDS011;3606;52.930;8.644;2022-11-15T10:05:20;8.10;;;5.00;;
7128;SDS011;3606;52.930;8.644;2022-11-15T10:12:47;6.00;;;4.77;;
7128;SDS011;3606;52.930;8.644;2022-11-15T10:15:16;6.70;;;4.70;;
7128;SDS011;3606;52.930;8.644;2022-11-15T10:20:29;6.47;;;5.30;;
7128;SDS011;3606;52.930;8.644;2022-11-15T10:23:01;5.90;;;4.87;;
7128;SDS011;3606;52.930;8.644;2022-11-15T10:25:32;5.77;;;5.17;;
7128;SDS011;3606;52.930;8.644;2022-11-15T10:30:36;6.77;;;4.93;;
7128;SDS011;3606;52.930;8.644;2022-11-15T10:41:49;7.13;;;5.23;;
7128;SDS011;3606;52.930;8.644;2022-11-15T10:44:10;7.80;;;5.33;;
7128;SDS011;3606;52.930;8.644;2022-11-15T10:46:46;6.83;;;5.27;;
7128;SDS011;3606;52.930;8.644;2022-11-15T10:49:29;6.77;;;5.20;;
7128;SDS011;3606;52.930;8.644;2022-11-15T10:52:00;5.40;;;4.77;;
7128;SDS011;3606;52.930;8.644;2022-11-15T10:54:47;5.40;;;4.23;;
7128;SDS011;3606;52.930;8.644;2022-11-15T10:57:23;5.47;;;4.20;;
7128;SDS011;3606;52.930;8.644;2022-11-15T10:59:55;4.97;;;4.23;;
7128;SDS011;3606;52.930;8.644;2022-11-15T11:02:30;6.63;;;4.73;;
7128;SDS011;3606;52.930;8.644;2022-11-15T11:04:59;5.93;;;4.40;;
7128;SDS011;3606;52.930;8.644;2022-11-15T11:07:27;6.13;;;4.57;;
7128;SDS011;3606;52.930;8.644;2022-11-15T11:10:01;5.67;;;4.43;;
7128;SDS011;3606;52.930;8.644;2022-11-15T11:12:43;5.63;;;4.03;;
7128;SDS011;3606;52.930;8.644;2022-11-15T11:15:10;5.07;;;4.20;;
7128;SDS011;3606;52.930;8.644;2022-11-15T11:20:29;4.00;;;3.60;;
7128;SDS011;3606;52.930;8.644;2022-11-15T11:26:30;4.40;;;3.70;;
7128;SDS011;3606;52.930;8.644;2022-11-15T11:32:23;7.93;;;3.50;;
7128;SDS011;3606;52.930;8.644;2022-11-15T11:51:10;3.77;;;2.50;;
7128;SDS011;3606;52.930;8.644;2022-11-15T11:53:39;3.20;;;2.60;;
7128;SDS011;3606;52.930;8.644;2022-11-15T11:56:16;3.13;;;2.83;;
7128;SDS011;3606;52.930;8.644;2022-11-15T11:58:47;4.53;;;2.43;;
7128;SDS011;3606;52.930;8.644;2022-11-15T12:03:57;5.17;;;3.17;;
7128;SDS011;3606;52.930;8.644;2022-11-15T12:06:35;4.23;;;2.93;;
7128;SDS011;3606;52.930;8.644;2022-11-15T12:17:36;6.43;;;3.67;;
7128;SDS011;3606;52.930;8.644;2022-11-15T12:20:06;5.47;;;4.23;;
7128;SDS011;3606;52.930;8.644;2022-11-15T12:22:52;2.73;;;1.80;;
7128;SDS011;3606;52.930;8.644;2022-11-15T12:25:30;2.90;;;2.00;;
7128;SDS011;3606;52.930;8.644;2022-11-15T12:33:32;2.23;;;1.67;;
7128;SDS011;3606;52.930;8.644;2022-11-15T12:36:44;3.73;;;1.70;;
7128;SDS011;3606;52.930;8.644;2022-11-15T12:39:04;2.30;;;1.83;;
7128;SDS011;3606;52.930;8.644;2022-11-15T12:41:35;2.53;;;2.00;;
7128;SDS011;3606;52.930;8.644;2022-11-15T12:44:02;2.20;;;1.73;;
7128;SDS011;3606;52.930;8.644;2022-11-15T12:49:08;3.67;;;1.70;;
7128;SDS011;3606;52.930;8.644;2022-11-15T13:02:18;4.70;;;1.47;;
7128;SDS011;3606;52.930;8.644;2022-11-15T13:22:46;2.13;;;1.87;;
7128;SDS011;3606;52.930;8.644;2022-11-15T13:30:40;1.73;;;1.63;;
7128;SDS011;3606;52.930;8.644;2022-11-15T13:33:15;2.07;;;1.43;;
7128;SDS011;3606;52.930;8.644;2022-11-15T13:36:01;1.43;;;1.33;;
7128;SDS011;3606;52.930;8.644;2022-11-15T13:38:58;2.97;;;2.07;;
7128;SDS011;3606;52.930;8.644;2022-11-15T13:41:25;2.43;;;1.73;;
7128;SDS011;3606;52.930;8.644;2022-11-15T13:43:53;4.60;;;1.93;;
7128;SDS011;3606;52.930;8.644;2022-11-15T13:48:57;1.33;;;1.23;;
7128;SDS011;3606;52.930;8.644;2022-11-15T13:56:53;1.33;;;1.20;;
7128;SDS011;3606;52.930;8.644;2022-11-15T13:59:28;3.20;;;1.20;;
7128;SDS011;3606;52.930;8.644;2022-11-15T14:02:01;1.63;;;1.50;;
7128;SDS011;3606;52.930;8.644;2022-11-15T14:04:36;1.60;;;1.50;;
7128;SDS011;3606;52.930;8.644;2022-11-15T14:07:04;1.30;;;1.20;;
7128;SDS011;3606;52.930;8.644;2022-11-15T14:09:31;2.50;;;1.30;;
7128;SDS011;3606;52.930;8.644;2022-11-15T14:12:21;2.93;;;1.10;;
7128;SDS011;3606;52.930;8.644;2022-11-15T14:14:47;1.33;;;1.23;;
7128;SDS011;3606;52.930;8.644;2022-11-15T14:17:46;1.23;;;1.13;;
7128;SDS011;3606;52.930;8.644;2022-11-15T14:20:47;1.40;;;1.30;;
7128;SDS011;3606;52.930;8.644;2022-11-15T14:23:02;2.53;;;1.63;;
7128;SDS011;3606;52.930;8.644;2022-11-15T14:25:52;1.40;;;1.30;;
7128;SDS011;3606;52.930;8.644;2022-11-15T14:30:48;4.93;;;1.30;;
7128;SDS011;3606;52.930;8.644;2022-11-15T14:33:23;2.77;;;1.40;;
7128;SDS011;3606;52.930;8.644;2022-11-15T14:35:58;1.47;;;1.17;;
7128;SDS011;3606;52.930;8.644;2022-11-15T14:38:30;1.37;;;1.10;;
7128;SDS011;3606;52.930;8.644;2022-11-15T14:40:56;2.67;;;1.40;;
7128;SDS011;3606;52.930;8.644;2022-11-15T14:43:22;1.80;;;1.53;;
7128;SDS011;3606;52.930;8.644;2022-11-15T14:45:48;2.67;;;1.73;;
7128;SDS011;3606;52.930;8.644;2022-11-15T14:48:13;1.90;;;1.47;;
7128;SDS011;3606;52.930;8.644;2022-11-15T14:50:39;1.90;;;1.53;;
7128;SDS011;3606;52.930;8.644;2022-11-15T14:53:05;3.83;;;2.60;;
7128;SDS011;3606;52.930;8.644;2022-11-15T14:55:32;2.23;;;1.60;;
7128;SDS011;3606;52.930;8.644;2022-11-15T14:58:04;2.13;;;1.50;;
7128;SDS011;3606;52.930;8.644;2022-11-15T15:00:33;1.93;;;1.57;;
7128;SDS011;3606;52.930;8.644;2022-11-15T15:02:59;1.43;;;1.23;;
7128;SDS011;3606;52.930;8.644;2022-11-15T15:05:33;1.40;;;1.23;;
7128;SDS011;3606;52.930;8.644;2022-11-15T15:08:02;1.43;;;1.33;;
7128;SDS011;3606;52.930;8.644;2022-11-15T15:10:30;2.93;;;1.40;;
7128;SDS011;3606;52.930;8.644;2022-11-15T15:12:58;1.60;;;1.40;;
7128;SDS011;3606;52.930;8.644;2022-11-15T15:15:24;3.10;;;1.40;;
7128;SDS011;3606;52.930;8.644;2022-11-15T15:17:51;2.30;;;1.53;;
7128;SDS011;3606;52.930;8.644;2022-11-15T15:20:17;4.07;;;1.73;;
7128;SDS011;3606;52.930;8.644;2022-11-15T15:22:43;2.07;;;1.60;;
7128;SDS011;3606;52.930;8.644;2022-11-15T15:25:19;1.63;;;1.53;;
7128;SDS011;3606;52.930;8.644;2022-11-15T15:27:46;2.80;;;1.60;;
7128;SDS011;3606;52.930;8.644;2022-11-15T15:30:12;1.90;;;1.70;;
7128;SDS011;3606;52.930;8.644;2022-11-15T15:32:38;3.07;;;1.70;;
7128;SDS011;3606;52.930;8.644;2022-11-15T15:35:04;2.43;;;1.90;;
7128;SDS011;3606;52.930;8.644;2022-11-15T15:37:29;2.50;;;2.10;;
7128;SDS011;3606;52.930;8.644;2022-11-15T15:39:58;6.03;;;2.27;;
7128;SDS011;3606;52.930;8.644;2022-11-15T15:42:24;3.57;;;2.00;;
7128;SDS011;3606;52.930;8.644;2022-11-15T15:44:50;4.67;;;1.80;;
7128;SDS011;3606;52.930;8.644;2022-11-15T15:47:16;5.47;;;2.47;;
7128;SDS011;3606;52.930;8.644;2022-11-15T15:49:44;2.10;;;1.90;;
7128;SDS011;3606;52.930;8.644;2022-11-15T15:52:10;11.60;;;6.27;;
7128;SDS011;3606;52.930;8.644;2022-11-15T15:54:36;5.93;;;4.27;;
7128;SDS011;3606;52.930;8.644;2022-11-15T15:57:02;7.30;;;4.40;;
7128;SDS011;3606;52.930;8.644;2022-11-15T15:59:28;5.63;;;3.50;;
7128;SDS011;3606;52.930;8.644;2022-11-15T16:01:53;5.00;;;3.30;;
7128;SDS011;3606;52.930;8.644;2022-11-15T16:04:19;4.23;;;3.57;;
7128;SDS011;3606;52.930;8.644;2022-11-15T16:06:45;8.43;;;2.60;;
7128;SDS011;3606;52.930;8.644;2022-11-15T16:09:14;2.53;;;2.30;;
7128;SDS011;3606;52.930;8.644;2022-11-15T16:11:41;8.33;;;3.43;;
7128;SDS011;3606;52.930;8.644;2022-11-15T16:14:08;3.47;;;2.43;;
7128;SDS011;3606;52.930;8.644;2022-11-15T16:16:34;3.53;;;2.70;;
7128;SDS011;3606;52.930;8.644;2022-11-15T16:19:00;4.63;;;2.93;;
7128;SDS011;3606;52.930;8.644;2022-11-15T16:21:26;4.70;;;3.00;;
7128;SDS011;3606;52.930;8.644;2022-11-15T16:23:52;5.53;;;2.87;;
7128;SDS011;3606;52.930;8.644;2022-11-15T16:26:22;2.93;;;2.50;;
7128;SDS011;3606;52.930;8.644;2022-11-15T16:28:50;5.07;;;3.07;;
7128;SDS011;3606;52.930;8.644;2022-11-15T16:31:16;3.40;;;3.10;;
7128;SDS011;3606;52.930;8.644;2022-11-15T16:33:44;3.77;;;3.00;;
7128;SDS011;3606;52.930;8.644;2022-11-15T16:38:49;5.60;;;3.13;;
7128;SDS011;3606;52.930;8.644;2022-11-15T16:41:15;5.17;;;3.20;;
7128;SDS011;3606;52.930;8.644;2022-11-15T16:43:43;6.03;;;3.27;;
7128;SDS011;3606;52.930;8.644;2022-11-15T16:46:17;7.73;;;5.70;;
7128;SDS011;3606;52.930;8.644;2022-11-15T16:48:48;7.57;;;6.63;;
7128;SDS011;3606;52.930;8.644;2022-11-15T16:51:14;7.07;;;4.47;;
7128;SDS011;3606;52.930;8.644;2022-11-15T16:53:41;4.73;;;3.30;;
7128;SDS011;3606;52.930;8.644;2022-11-15T16:56:26;8.23;;;4.83;;
7128;SDS011;3606;52.930;8.644;2022-11-15T16:58:53;8.40;;;5.37;;
7128;SDS011;3606;52.930;8.644;2022-11-15T17:01:33;7.43;;;4.63;;
7128;SDS011;3606;52.930;8.644;2022-11-15T17:04:00;5.73;;;4.57;;
7128;SDS011;3606;52.930;8.644;2022-11-15T17:06:41;10.43;;;7.73;;
7128;SDS011;3606;52.930;8.644;2022-11-15T17:09:14;6.70;;;5.60;;
7128;SDS011;3606;52.930;8.644;2022-11-15T17:11:42;7.50;;;4.90;;
7128;SDS011;3606;52.930;8.644;2022-11-15T17:14:08;8.03;;;5.03;;
7128;SDS011;3606;52.930;8.644;2022-11-15T17:16:35;4.60;;;4.10;;
7128;SDS011;3606;52.930;8.644;2022-11-15T17:19:02;7.77;;;4.47;;
7128;SDS011;3606;52.930;8.644;2022-11-15T17:21:28;9.97;;;5.00;;
7128;SDS011;3606;52.930;8.644;2022-11-15T17:23:54;6.63;;;4.23;;
7128;SDS011;3606;52.930;8.644;2022-11-15T17:26:20;4.97;;;3.77;;
7128;SDS011;3606;52.930;8.644;2022-11-15T17:28:46;6.37;;;4.20;;
7128;SDS011;3606;52.930;8.644;2022-11-15T17:31:12;9.87;;;3.90;;
7128;SDS011;3606;52.930;8.644;2022-11-15T17:33:38;5.40;;;3.50;;
7128;SDS011;3606;52.930;8.644;2022-11-15T17:36:06;9.27;;;3.67;;
7128;SDS011;3606;52.930;8.644;2022-11-15T17:38:34;5.20;;;3.67;;
7128;SDS011;3606;52.930;8.644;2022-11-15T17:41:00;5.10;;;3.63;;
7128;SDS011;3606;52.930;8.644;2022-11-15T17:43:35;4.00;;;3.60;;
7128;SDS011;3606;52.930;8.644;2022-11-15T17:46:03;5.80;;;4.00;;
7128;SDS011;3606;52.930;8.644;2022-11-15T17:48:30;4.87;;;3.70;;